Terminal Aerodrome Forecast
Issued by NWS

Current Version | Previous Version | Text Only | Print | Product List | Glossary On
Versions: 1 2 3 4 5 6 7 8 9 10 11 12 13 14 15 16 17 18 19 20 21 22
000
FTUS45 KCYS 221801 CCA
TAFRWL
TAF COR
KRWL 221801Z 2218/2318 23015KT P6SM VCSH SCT016 OVC080
      TEMPO 2218/2220 BKN016
     FM222200 06005KT 2SM -SN OVC015
     FM230400 03006KT 1SM -SN OVC008=

USA.gov is the U.S. government's official web portal to all federal, state and local government web resources and services.